Uzbekistan A320 at Minsk on Jan 17th 2022, runway excursion on landing

Last Update: February 3, 2022 / 21:06:04 GMT/Zulu time

Bookmark this article
Incident Facts

Date of incident
Jan 17, 2022

Classification
Incident

Flight number
HY-709

Destination
Minsk, Belarus

Aircraft Registration
UK32018

Aircraft Type
Airbus A320

ICAO Type Designator
A320

Airport ICAO Code
UMMS

An Uzbekistan Airways Airbus A320-200, registration UK32018 performing flight HY-709 from Tashkent (Uzbekistan) to Minsk (Belarus), landed on Minsk's runway 31R and slowed down. After passing the last high speed turn off the aircraft veered 90 degrees to the left and came to a stop with the nose gear off paved surface. There were no injuries.

The aircraft remained on the ground for about 8 hours, then performed the return flight to Tashkent.

Belarus AIB reported the aircraft veered 90 degrees to the left at the end of the rollout after landing on runway 31R and came to a stop with the nose landing gear outside the runway. The occurrence was rated an incident.

Metars:
UMMS 171000Z 23009G12MPS 9000 -SHSN BLSN BKN005 OVC014CB 00/00 Q0984 TEMPO 23010G15MPS 0500 +SHSN RMK QBB170=
UMMS 170954Z 23009G12MPS 8000 -SHSN BLSN BKN004 OVC014CB 00/00 Q0984 TEMPO 23010G15MPS 0500 +SHSN RMK QBB140=
UMMS 170942Z 23009G12MPS 8000 -SHSN BLSN BKN005 OVC014CB 00/00 Q0984 TEMPO 23010G15MPS 0500 +SHSN RMK QBB160=
UMMS 170930Z 23009G12MPS 4900 -SHSN BLSN BKN005 OVC014CB 00/00 Q0984 RESHSN TEMPO 23010G15MPS 0500 +SHSN RMK QBB160=
UMMS 170921Z 23008G13MPS 1400 1200E R31R/1200D SHSN BLSN BKN004 OVC013CB 00/00 Q0984 TEMPO 23010G15MPS 0500 +SHSN RMK QBB130=
UMMS 170920Z 23008G13MPS 1400 1200NE R31R/1400D SHSN BLSN BKN005 OVC013CB 00/00 Q0985 TEMPO 23010G15MPS 0500 +SHSN RMK QBB150=
UMMS 170919Z 23008G13MPS 1500 1200W SHSN BLSN BKN004 OVC013CB 00/00 Q0985 TEMPO 23010G15MPS 0500 +SHSN RMK QBB140=
UMMS 170918Z 23008G13MPS 7000 1500W SHSN BLSN BKN005 OVC013CB 00/00 Q0985 TEMPO 23010G15MPS 0500 +SHSN RMK QBB160=
UMMS 170914Z 23009G12MPS 6000 -SHSN BLSN BKN005 OVC013CB 00/00 Q0985 TEMPO 23010G15MPS 0500 +SHSN RMK QBB150=
UMMS 170900Z 23008G12MPS 1600 1200E R31R/1200U R31L/1600U SHSN BLSN BKN004 OVC012CB 00/00 Q0985 TEMPO 23010G15MPS 0500 +SHSN RMK QBB120=
UMMS 170856Z 23009G13MPS 1100 1000E R31R/1000U R31L/1200U SHSN BLSN OVC003CB 00/00 Q0985 TEMPO 23010G15MPS 0500 +SHSN RMK QBB110=
UMMS 170843Z 23009G13MPS 1100 0900W R31R/1100N R31L/1200U +SHSN BLSN BKN003 OVC013CB 00/00 Q0985 TEMPO 23010G15MPS 0500 +SHSN RMK QBB110=
UMMS 170830Z 22007G11MPS 1300 1200N R31R/1300D R31L/1300D SHSN BLSN BKN003 OVC012CB 00/00 Q0986 TEMPO 23010G15MPS 0500 +SHSN RMK QBB110=
UMMS 170800Z 22008G11MPS 1400 1300W R31L/1400D SHSN BLSN BKN004 OVC013CB 00/M00 Q0987 RESHRA TEMPO 0500 +SHSN RMK QBB130=
UMMS 170758Z 22008G11MPS 2200 1400N SHSN BLSN BKN004 OVC013CB 00/M00 Q0987 NOSIG RMK QBB130=
UMMS 170757Z 23008G11MPS 2300 -SHSN BLSN BKN005 OVC013CB 00/M00 Q0987 NOSIG RMK QBB150=
UMMS 170754Z 23008G12MPS 4000 -SHSN BLSN BKN004 OVC013CB 00/M00 Q0987 NOSIG RMK QBB140=
UMMS 170736Z 23008G12MPS 1500 SHSN BLSN BKN006 OVC015CB 00/M00 Q0988 NOSIG RMK QBB190=
UMMS 170735Z 23008G12MPS 2100 -SHSN BLSN BKN006 OVC015CB 00/M00 Q0988 NOSIG RMK QBB190=
UMMS 170734Z 23008G12MPS 7000 1600N SHSN BLSN BKN006 OVC015CB 00/M00 Q0988 NOSIG RMK QBB190=
UMMS 170730Z 23008G13MPS 9000 -SHRASN BKN007 OVC015CB 00/M00 Q0988 NOSIG=
UMMS 170700Z 23008G11MPS 8000 -RASN OVC006 00/M00 Q0990 REBLSN NOSIG RMK QBB190=
UMMS 170649Z 23008G12MPS 7000 -SHRASN OVC006CB 00/M00 Q0989 NOSIG RMK QBB190=
UMMS 170630Z 23009G12MPS 4300 -SHSN BLSN BKN005 OVC015CB 00/M00 Q0990 RESHSN NOSIG RMK QBB170=
UMMS 170628Z 23009G12MPS 4900 2400N -SHSN BLSN BKN006 OVC013CB 00/M00 Q0990 NOSIG RMK QBB180=
UMMS 170627Z 23009G12MPS 5000 1900N SHSN BLSN BKN006 OVC013CB 00/M00 Q0990 NOSIG RMK QBB180=
UMMS 170614Z 23008G12MPS 5000 -SHSN BLSN OVC005CB 00/M00 Q0990 NOSIG RMK QBB170=
UMMS 170611Z 23008G12MPS 4500 -SHSN BLSN OVC005CB 00/M00 Q0990 NOSIG RMK QBB170=
UMMS 170600Z 23008G12MPS 1900 R31L/1800D SHSN BLSN OVC004CB M00/M00 Q0990 RESHRA NOSIG RMK QBB140=
UMMS 170559Z 23008G12MPS 2000 R31L/2000D SHSN BLSN OVC004CB 00/M00 Q0990 NOSIG RMK QBB140=
UMMS 170553Z 23008G12MPS 1700 R31L/1700D SHSN BLSN OVC005CB 00/M01 Q0991 NOSIG RMK QBB170=
UMMS 170552Z 23009G12MPS 2500 -SHSN BLSN OVC005CB 00/M01 Q0991 NOSIG RMK QBB170=
UMMS 170550Z 24008G12MPS 3400 -SHSN BLSN OVC005CB 00/M01 Q0991 NOSIG RMK QBB150=
UMMS 170549Z 24007G12MPS 3500 -SHRASN OVC005CB 00/M01 Q0991 NOSIG RMK QBB150=
UMMS 170533Z 24008G12MPS 1700 SHRASN OVC006CB 00/M01 Q0992 NOSIG RMK QBB180=
UMMS 170532Z 24008G12MPS 2500 -SHRASN OVC006CB 00/M01 Q0992 NOSIG RMK QBB180=
UMMS 170530Z 24008G12MPS 7000 OVC005 00/M01 Q0992 REFZDZ NOSIG RMK QBB170=
Incident Facts

Date of incident
Jan 17, 2022

Classification
Incident

Flight number
HY-709

Destination
Minsk, Belarus

Aircraft Registration
UK32018

Aircraft Type
Airbus A320

ICAO Type Designator
A320

Airport ICAO Code
UMMS

This article is published under license from Avherald.com. © of text by Avherald.com.
Article source

You can read 2 more free articles without a subscription.

Subscribe now and continue reading without any limits!

Are you a subscriber? Login
Subscribe

Read unlimited articles and receive our daily update briefing. Gain better insights into what is happening in commercial aviation safety.

Free newsletter

Want to know more and stay ahead? Get our free weekly newsletter and join 5384 existing subscribers.

By subscribing, you accept our terms and conditions and confirm that you've read our privacy policy.

Send tip

Support AeroInside by sending a small tip amount.

Related articles

Newest articles

Subscribe today

Are you researching aviation incidents? Get access to AeroInside Insights, unlimited read access and receive the daily newsletter.

Pick your plan and subscribe

Partner

Blockaviation logo

A new way to document and demonstrate airworthiness compliance and aircraft value. Find out more.

Virtual Speech logo

ELITE Simulation Solutions is a leading global provider of Flight Simulation Training Devices, IFR training software as well as flight controls and related services. Find out more.

Get updates

Never miss an article from AeroInside. Subscribe to our free weekly newsletter and join 5384 existing subscribers.

By subscribing, you accept our terms and conditions and that you've read our privacy policy.

AeroInside Blog
Popular aircraft
Airbus A320
Boeing 737-800
Boeing 737-800 MAX
Popular airlines
American Airlines
United
Delta
Air Canada
Lufthansa
British Airways